EDLW/DTM METAR and TAF weather

Enter ICAO airport designator
Station Type Date Time Source
EDLW METAR 2020/07/12 07:20 UTC NOAA

EDLW 120720Z VRB02KT CAVOK 15/10 Q1028


Station Type Date Time Source
EDLW Decoded METAR 2020/07/12 07:20 UTC NOAA

Dortmund / Wickede, Germany (EDLW) 51-31N 007-37E
Jul 12, 2020 - 03:20 AM EDT / 2020.07.12 0720 UTC
Wind: Variable at 2 MPH (2 KT):0
Visibility: greater than 7 mile(s):0
Temperature: 59 F (15 C)
Dew Point: 50 F (10 C)
Relative Humidity: 72%
Pressure (altimeter): 30.36 in. Hg (1028 hPa)
ob: EDLW 120720Z VRB02KT CAVOK 15/10 Q1028
cycle: 7

Station Type Date Time Source
EDLW TAF 2020/07/12 06:27 UTC NOAA

TAF EDLW 120500Z 1206/1306 16004KT CAVOK
BECMG 1209/1211 02005KT
BECMG 1218/1220 09004KT

Example: see airport list